Sangita — V3TR4 — position and weather

sailwx.info

Track history (hours):
 
Tides and Currents Weather Stations Pressure Air Temp Water Temp Dewpoint Dewpoint Depression Visibility Wind Speed Wind Dir Waves Ship Positions

Sangita

Last reported at 2018-Jun-18 02:58 UTC. Time now 2018-Jun-21 12:27 UTC.
Position N 37°29' E 025°55'.

Length 154 m; draft 8.7 m.

Type: Cargo ship. MMSI: 312983000.

Date/timePositionNaut miles runAvg speedWind from/ knotsBaromVisibWave heightAir tempDewpointWater temp
2018-Jun-18 02:58N 37°29' E 025°55'510.6
2018-Jun-18 02:28N 37°34' E 025°53'276 7.7
2018-Jun-16 14:39N 41°30' E 028°58'0 0.6
2018-Jun-16 14:28N 41°30' E 028°58'0 0.7
2018-Jun-16 13:53N 41°31' E 028°59'0 0.5
2018-Jun-16 13:31N 41°31' E 028°59'3 1.9
2018-Jun-16 11:58N 41°33' E 029°02'88 9.3
2018-Jun-16 02:28N 43°01' E 028°57'611.9
2018-Jun-16 02:00N 43°06' E 028°56'611.8
2018-Jun-16 01:30N 43°12' E 028°55'611.7
2018-Jun-16 01:00N 43°18' E 028°54'611.7
2018-Jun-16 00:31N 43°24' E 028°53'611.5
2018-Jun-16 00:00N 43°29' E 028°53'611.4
2018-Jun-15 23:30N 43°35' E 028°52'611.2
2018-Jun-15 23:01N 43°41' E 028°51'611.1
2018-Jun-15 22:31N 43°46' E 028°51'611.2
2018-Jun-15 22:00N 43°52' E 028°50'611.1
2018-Jun-15 21:31N 43°57' E 028°49'610.8
2018-Jun-15 20:59N 44°02' E 028°45'5 9.5
2018-Jun-15 20:30N 44°06' E 028°42'3 6.6
2018-Jun-15 20:00N 44°09' E 028°40'1 1.7
2018-Jun-15 19:28N 44°09' E 028°39'0 0.0
2018-Jun-15 18:59N 44°09' E 028°39'0 0.0
2018-Jun-15 18:23N 44°09' E 028°39'0 0.0
2018-Jun-15 17:58N 44°09' E 028°39'0 0.0
2018-Jun-15 17:29N 44°09' E 028°39'0 0.0
2018-Jun-15 16:55N 44°09' E 028°39'0 0.0
2018-Jun-15 16:30N 44°09' E 028°39'0 0.0
2018-Jun-15 15:53N 44°09' E 028°39'0 0.0
2018-Jun-15 15:26N 44°09' E 028°39'0 0.0
2018-Jun-15 15:00N 44°09' E 028°39'0 0.0
2018-Jun-15 14:30N 44°09' E 028°39'0 0.0
2018-Jun-15 13:57N 44°09' E 028°39'0 0.0
2018-Jun-15 13:29N 44°09' E 028°39'0 0.0
2018-Jun-15 12:59N 44°09' E 028°39'0 0.0
2018-Jun-15 12:30N 44°09' E 028°39'0 0.0
2018-Jun-15 12:00N 44°09' E 028°39'0 0.0
2018-Jun-15 11:28N 44°09' E 028°39'0 0.0
2018-Jun-15 10:54N 44°09' E 028°39'0 0.0
2018-Jun-15 10:23N 44°09' E 028°39'0 0.0
2018-Jun-15 09:58N 44°09' E 028°39'0 0.0
2018-Jun-15 09:27N 44°09' E 028°39'0 0.0
2018-Jun-15 08:55N 44°09' E 028°39'0 0.0
2018-Jun-15 08:30N 44°09' E 028°39'0 0.0
2018-Jun-15 07:59N 44°09' E 028°39'0 0.0
2018-Jun-15 07:30N 44°09' E 028°39'0 0.0
2018-Jun-15 07:00N 44°09' E 028°39'0 0.0
2018-Jun-15 06:22N 44°09' E 028°39'0 0.0
2018-Jun-15 06:00N 44°09' E 028°39'0 0.0
2018-Jun-15 05:30N 44°09' E 028°39'0 0.0
2018-Jun-15 04:59N 44°09' E 028°39'0 0.0
2018-Jun-15 04:28N 44°09' E 028°39'0 0.0
2018-Jun-15 03:59N 44°09' E 028°39'0 0.0
2018-Jun-15 03:30N 44°09' E 028°39'0 0.0
2018-Jun-15 03:00N 44°09' E 028°39'0 0.0
2018-Jun-15 02:30N 44°09' E 028°39'0 0.0
2018-Jun-15 02:00N 44°09' E 028°39'0 0.0
2018-Jun-15 01:30N 44°09' E 028°39'0 0.0
2018-Jun-15 00:58N 44°09' E 028°39'0 0.0
2018-Jun-15 00:28N 44°09' E 028°39'0 0.0
2018-Jun-14 23:58N 44°09' E 028°39'0 0.0
2018-Jun-14 23:28N 44°09' E 028°39'0 0.0
2018-Jun-14 22:58N 44°09' E 028°39'0 0.0
2018-Jun-14 22:29N 44°09' E 028°39'0 0.0
2018-Jun-14 21:59N 44°09' E 028°39'0 0.0
2018-Jun-14 21:29N 44°09' E 028°39'0 0.0
2018-Jun-14 21:00N 44°09' E 028°39'0 0.0
2018-Jun-14 20:30N 44°09' E 028°39'0 0.0
2018-Jun-14 19:59N 44°09' E 028°39'0 0.0
2018-Jun-14 19:24N 44°09' E 028°39'0 0.0
2018-Jun-14 19:00N 44°09' E 028°39'0 0.0
2018-Jun-14 18:30N 44°09' E 028°39'0 0.0
2018-Jun-14 17:58N 44°09' E 028°39'0 0.0
2018-Jun-14 17:25N 44°09' E 028°39'0 0.0
2018-Jun-14 16:50N 44°09' E 028°39'0 0.0
2018-Jun-14 16:29N 44°09' E 028°39'0 0.0
2018-Jun-14 15:50N 44°09' E 028°39'0 0.0
2018-Jun-14 15:20N 44°09' E 028°39'0 0.0
2018-Jun-14 14:45N 44°09' E 028°39'0 0.0
2018-Jun-14 14:19N 44°09' E 028°39'0 0.0
2018-Jun-14 13:02N 44°09' E 028°39'0 0.1
2018-Jun-14 12:58N 44°09' E 028°39'0 0.0
2018-Jun-14 12:30N 44°09' E 028°39'0 0.0
2018-Jun-14 11:58N 44°09' E 028°39'0 0.0
2018-Jun-14 11:26N 44°09' E 028°39'0 0.0
2018-Jun-14 10:59N 44°09' E 028°39'0 0.0
2018-Jun-14 10:29N 44°09' E 028°39'0 0.0
2018-Jun-14 09:56N 44°09' E 028°39'0 0.0
2018-Jun-14 09:26N 44°09' E 028°39'0 0.0
2018-Jun-14 09:00N 44°09' E 028°39'0 0.0
2018-Jun-14 08:15N 44°09' E 028°39'0 0.0
2018-Jun-14 07:59N 44°09' E 028°39'0 0.0
2018-Jun-14 07:26N 44°09' E 028°39'0 0.0
2018-Jun-14 06:59N 44°09' E 028°39'0 0.0
2018-Jun-14 06:30N 44°09' E 028°39'0 0.0
2018-Jun-14 06:00N 44°09' E 028°39'0 0.0
2018-Jun-14 05:26N 44°09' E 028°39'0 0.0
2018-Jun-14 04:57N 44°09' E 028°39'0 0.0
2018-Jun-14 04:30N 44°09' E 028°39'0 0.0
2018-Jun-14 03:58N 44°09' E 028°39'0 0.0
2018-Jun-14 03:27N 44°09' E 028°39'0 0.0
2018-Jun-14 02:54N 44°09' E 028°39'0 0.0
2018-Jun-14 02:29N 44°09' E 028°39'0 0.0
2018-Jun-14 01:59N 44°09' E 028°39'0 0.0
2018-Jun-14 01:30N 44°09' E 028°39'0 0.0
2018-Jun-14 00:52N 44°09' E 028°39'0 0.0
2018-Jun-14 00:29N 44°09' E 028°39'0 0.0
2018-Jun-13 23:59N 44°09' E 028°39'0 0.0
2018-Jun-13 23:28N 44°09' E 028°39'0 0.0
2018-Jun-13 22:54N 44°09' E 028°39'0 0.0
2018-Jun-13 22:29N 44°09' E 028°39'0 0.0
2018-Jun-13 21:59N 44°09' E 028°39'0 0.0
2018-Jun-13 21:23N 44°09' E 028°39'0 0.0
2018-Jun-13 20:59N 44°09' E 028°39'0 0.0
2018-Jun-13 20:23N 44°09' E 028°39'0 0.0
2018-Jun-13 19:59N 44°09' E 028°39'0 0.0
2018-Jun-13 19:27N 44°09' E 028°39'0 0.0
2018-Jun-13 18:57N 44°09' E 028°39'0 0.0
2018-Jun-13 18:29N 44°09' E 028°39'0 0.0
2018-Jun-13 17:56N 44°09' E 028°39'0 0.0
2018-Jun-13 17:26N 44°09' E 028°39'0 0.0
2018-Jun-13 17:00N 44°09' E 028°39'0 0.0
2018-Jun-13 16:20N 44°09' E 028°39'0 0.0
2018-Jun-13 15:59N 44°09' E 028°39'0 0.0
2018-Jun-13 15:30N 44°09' E 028°39'0 0.0
2018-Jun-13 14:54N 44°09' E 028°39'0 0.0
2018-Jun-13 14:30N 44°09' E 028°39'0 0.0
2018-Jun-13 13:56N 44°09' E 028°39'0 0.0
2018-Jun-13 13:25N 44°09' E 028°39'0 0.0
2018-Jun-13 12:59N 44°09' E 028°39'0 0.0
2018-Jun-13 12:30N 44°09' E 028°39'0 0.0
2018-Jun-13 11:58N 44°09' E 028°39'0 0.0
2018-Jun-13 11:24N 44°09' E 028°39'0 0.0
2018-Jun-13 11:00N 44°09' E 028°39'0 0.0
2018-Jun-13 10:29N 44°09' E 028°39'0 0.0
2018-Jun-13 09:58N 44°09' E 028°39'0 0.0
2018-Jun-13 09:27N 44°09' E 028°39'0 0.0
2018-Jun-13 08:55N 44°09' E 028°39'0 0.0
2018-Jun-13 08:29N 44°09' E 028°39'0 0.0
2018-Jun-13 07:58N 44°09' E 028°39'0 0.0
2018-Jun-13 07:28N 44°09' E 028°39'0 0.0
2018-Jun-13 07:00N 44°09' E 028°39'0 0.0
2018-Jun-13 06:29N 44°09' E 028°39'0 0.0
2018-Jun-13 05:44N 44°09' E 028°39'0 0.0
2018-Jun-13 05:26N 44°09' E 028°39'0 0.0
2018-Jun-13 04:55N 44°09' E 028°39'0 0.0
2018-Jun-13 04:27N 44°09' E 028°39'0 0.0
2018-Jun-13 03:58N 44°09' E 028°39'0 0.0
2018-Jun-13 03:25N 44°09' E 028°39'0 0.0
2018-Jun-13 02:59N 44°09' E 028°39'0 0.0
2018-Jun-13 02:30N 44°09' E 028°39'0 0.0
2018-Jun-13 01:53N 44°09' E 028°39'0 0.0
2018-Jun-13 01:28N 44°09' E 028°39'0 0.0
2018-Jun-13 00:58N 44°09' E 028°39'0 0.0
2018-Jun-13 00:29N 44°09' E 028°39'0 0.0
2018-Jun-12 23:59N 44°09' E 028°39'0 0.0
2018-Jun-12 23:30N 44°09' E 028°39'0 0.0
2018-Jun-12 22:54N 44°09' E 028°39'0 0.0
2018-Jun-12 22:28N 44°09' E 028°39'0 0.0
2018-Jun-12 22:00N 44°09' E 028°39'0 0.0
2018-Jun-12 21:26N 44°09' E 028°39'0 0.0
2018-Jun-12 20:59N 44°09' E 028°39'0 0.0
2018-Jun-12 20:29N 44°09' E 028°39'0 0.0
2018-Jun-12 19:55N 44°09' E 028°39'0 0.0
2018-Jun-12 19:25N 44°09' E 028°39'0 0.0
2018-Jun-12 18:59N 44°09' E 028°39'0 0.0
2018-Jun-12 18:28N 44°09' E 028°39'0 0.0
2018-Jun-12 17:04N 44°09' E 028°39'0 0.0
2018-Jun-12 16:57N 44°09' E 028°39'0 0.0
2018-Jun-12 16:23N 44°09' E 028°39'0 0.0
2018-Jun-12 15:57N 44°09' E 028°39'0 0.0
2018-Jun-12 15:30N 44°09' E 028°39'0 0.0
2018-Jun-12 14:57N 44°09' E 028°39'0 0.0
2018-Jun-12 14:27N 44°09' E 028°39'0 0.0
2018-Jun-12 13:53N 44°09' E 028°39'0 0.0
2018-Jun-12 13:30N 44°09' E 028°39'0 0.0
2018-Jun-12 12:46N 44°09' E 028°39'0 0.0
2018-Jun-12 12:24N 44°09' E 028°39'0 0.0
2018-Jun-12 11:58N 44°09' E 028°39'0 0.0
2018-Jun-12 11:27N 44°09' E 028°39'0 0.0
2018-Jun-12 10:59N 44°09' E 028°39'0 0.0
2018-Jun-12 10:29N 44°09' E 028°39'0 0.0
2018-Jun-12 09:56N 44°09' E 028°39'0 0.0
2018-Jun-12 09:29N 44°09' E 028°39'0 0.0
2018-Jun-12 09:00N 44°09' E 028°39'0 0.0
2018-Jun-12 08:23N 44°09' E 028°39'0 0.0
2018-Jun-12 07:58N 44°09' E 028°39'0 0.0
2018-Jun-12 07:30N 44°09' E 028°39'0 0.0
2018-Jun-12 06:58N 44°09' E 028°39'0 0.0
2018-Jun-12 06:30N 44°09' E 028°39'0 0.0
2018-Jun-12 05:56N 44°09' E 028°39'0 0.0
2018-Jun-12 05:30N 44°09' E 028°39'0 0.0
2018-Jun-12 04:58N 44°09' E 028°39'0 0.0
2018-Jun-12 04:28N 44°09' E 028°39'0 0.0
2018-Jun-12 03:58N 44°09' E 028°39'0 0.0
2018-Jun-12 03:29N 44°09' E 028°39'0 0.0
2018-Jun-12 03:00N 44°09' E 028°39'0 0.0
2018-Jun-12 02:21N 44°09' E 028°39'0 0.0
2018-Jun-12 01:58N 44°09' E 028°39'0 0.0
2018-Jun-12 01:25N 44°09' E 028°39'0 0.0
2018-Jun-12 01:00N 44°09' E 028°39'0 0.0
2018-Jun-12 00:28N 44°09' E 028°39'0 0.0
2018-Jun-11 23:51N 44°09' E 028°39'0 0.0
2018-Jun-11 23:27N 44°09' E 028°39'0 0.0
2018-Jun-11 23:00N 44°09' E 028°39'0 0.0
2018-Jun-11 22:30N 44°09' E 028°39'0 0.0
2018-Jun-11 22:00N 44°09' E 028°39'0 0.0
2018-Jun-11 21:25N 44°09' E 028°39'0 0.0
2018-Jun-11 20:58N 44°09' E 028°39'0 0.0
2018-Jun-11 20:28N 44°09' E 028°39'0 0.0
2018-Jun-11 20:00N 44°09' E 028°39'0 0.0
2018-Jun-11 19:30N 44°09' E 028°39'0 0.0
2018-Jun-11 18:58N 44°09' E 028°39'0 0.0
2018-Jun-11 18:26N 44°09' E 028°39'0 0.0
2018-Jun-11 17:59N 44°09' E 028°39'0 0.0
2018-Jun-11 17:27N 44°09' E 028°39'0 0.0
2018-Jun-11 16:54N 44°09' E 028°39'0 0.0
2018-Jun-11 16:30N 44°09' E 028°39'0 0.0
2018-Jun-11 16:00N 44°09' E 028°39'0 0.0
2018-Jun-11 15:24N 44°09' E 028°39'0 0.0
2018-Jun-11 14:59N 44°09' E 028°39'0 0.0
2018-Jun-11 14:26N 44°09' E 028°39'0 0.0
2018-Jun-11 13:59N 44°09' E 028°39'0 0.0
2018-Jun-11 13:27N 44°09' E 028°39'0 0.0
2018-Jun-11 12:59N 44°09' E 028°39'0 0.0
2018-Jun-11 12:30N 44°09' E 028°39'0 0.0
2018-Jun-11 11:58N 44°09' E 028°39'0 0.0
2018-Jun-11 11:29N 44°09' E 028°39'0 0.0
2018-Jun-11 10:55N 44°09' E 028°39'0 0.0
2018-Jun-11 10:30N 44°09' E 028°39'0 0.0
2018-Jun-11 10:00N 44°09' E 028°39'0 0.0
2018-Jun-11 09:30N 44°09' E 028°39'0 0.0
2018-Jun-11 08:56N 44°09' E 028°39'0 0.0
2018-Jun-11 08:30N 44°09' E 028°39'0 0.0
2018-Jun-11 08:00N 44°09' E 028°39'0 0.0
2018-Jun-11 07:28N 44°09' E 028°39'0 0.0
2018-Jun-11 06:52N 44°09' E 028°39'0 0.0
2018-Jun-11 06:28N 44°09' E 028°39'0 0.0
2018-Jun-11 05:59N 44°09' E 028°39'0 0.0
2018-Jun-11 05:27N 44°09' E 028°39'0 0.0
2018-Jun-11 05:00N 44°09' E 028°39'0 0.0
2018-Jun-11 04:28N 44°09' E 028°39'0 0.0
2018-Jun-11 03:58N 44°09' E 028°39'0 0.0
2018-Jun-11 03:28N 44°09' E 028°39'0 0.0
2018-Jun-11 03:00N 44°09' E 028°39'0 0.0
2018-Jun-11 02:28N 44°09' E 028°39'0 0.0
2018-Jun-11 02:00N 44°09' E 028°39'0 0.0
2018-Jun-11 01:25N 44°09' E 028°39'0 0.0
2018-Jun-11 00:53N 44°09' E 028°39'0 0.0
2018-Jun-11 00:30N 44°09' E 028°39'0 0.0
2018-Jun-10 23:59N 44°09' E 028°39'0 0.0
2018-Jun-10 23:29N 44°09' E 028°39'0 0.0
2018-Jun-10 22:59N 44°09' E 028°39'0 0.0
2018-Jun-10 22:29N 44°09' E 028°39'0 0.0
2018-Jun-10 21:59N 44°09' E 028°39'0 0.0
2018-Jun-10 21:30N 44°09' E 028°39'0 0.0
2018-Jun-10 20:55N 44°09' E 028°39'0 0.0
2018-Jun-10 20:30N 44°09' E 028°39'0 0.0
2018-Jun-10 19:59N 44°09' E 028°39'0 0.0
2018-Jun-10 19:28N 44°09' E 028°39'0 0.0
2018-Jun-10 18:57N 44°09' E 028°39'0 0.0
2018-Jun-10 18:23N 44°09' E 028°39'0 0.0
2018-Jun-10 17:54N 44°09' E 028°39'0 0.0
2018-Jun-10 17:24N 44°09' E 028°39'0 0.0
2018-Jun-10 17:00N 44°09' E 028°39'0 0.0
2018-Jun-10 16:29N 44°09' E 028°39'0 0.0
2018-Jun-10 15:58N 44°09' E 028°39'0 0.0
2018-Jun-10 15:30N 44°09' E 028°39'0 0.0
2018-Jun-10 14:58N 44°09' E 028°39'0 0.0
2018-Jun-10 13:58N 44°09' E 028°39'0 0.0
2018-Jun-10 13:30N 44°09' E 028°39'0 0.0
2018-Jun-10 13:00N 44°09' E 028°39'0 0.0
2018-Jun-10 12:30N 44°09' E 028°39'0 0.0
2018-Jun-10 11:57N 44°09' E 028°39'0 0.0
2018-Jun-10 11:25N 44°09' E 028°39'0 0.0
2018-Jun-10 10:56N 44°09' E 028°39'0 0.0
2018-Jun-10 10:29N 44°09' E 028°39'0 0.0
2018-Jun-10 10:00N 44°09' E 028°39'0 0.0
2018-Jun-10 09:30N 44°09' E 028°39'0 0.0
2018-Jun-10 08:59N 44°09' E 028°39'0 0.0
2018-Jun-10 08:23N 44°09' E 028°39'0 0.0
2018-Jun-10 07:58N 44°09' E 028°39'0 0.0
2018-Jun-10 07:28N 44°09' E 028°39'0 0.0
2018-Jun-10 06:58N 44°09' E 028°39'0 0.0
2018-Jun-10 06:29N 44°09' E 028°39'0 0.0
2018-Jun-10 05:58N 44°09' E 028°39'0 0.0
2018-Jun-10 05:28N 44°09' E 028°39'0 0.0
2018-Jun-10 04:53N 44°09' E 028°39'0 0.0
2018-Jun-10 04:28N 44°09' E 028°39'0 0.0
2018-Jun-10 03:56N 44°09' E 028°39'0 0.0
2018-Jun-10 03:27N 44°09' E 028°39'0 0.0
2018-Jun-10 02:55N 44°09' E 028°39'0 0.0
2018-Jun-10 02:29N 44°09' E 028°39'0 0.0
2018-Jun-10 01:58N 44°09' E 028°39'0 0.0
2018-Jun-10 01:24N 44°09' E 028°39'0 0.0
2018-Jun-10 00:59N 44°09' E 028°39'0 0.0
2018-Jun-10 00:29N 44°09' E 028°39'0 0.0
2018-Jun-09 23:57N 44°09' E 028°39'0 0.0
2018-Jun-09 23:30N 44°09' E 028°39'0 0.0
2018-Jun-09 23:00N 44°09' E 028°39'0 0.0
2018-Jun-09 22:29N 44°09' E 028°39'0 0.0
2018-Jun-09 22:00N 44°09' E 028°39'0 0.0
2018-Jun-09 21:27N 44°09' E 028°39'0 0.0
2018-Jun-09 21:00N 44°09' E 028°39'0 0.0
2018-Jun-09 20:30N 44°09' E 028°39'0 0.0
2018-Jun-09 19:57N 44°09' E 028°39'0 0.0
2018-Jun-09 19:28N 44°09' E 028°39'0 0.0
2018-Jun-09 19:00N 44°09' E 028°39'0 0.0
2018-Jun-09 18:30N 44°09' E 028°39'0 0.0
2018-Jun-09 17:58N 44°09' E 028°39'0 0.0
2018-Jun-09 17:29N 44°09' E 028°39'0 0.0
2018-Jun-09 17:00N 44°09' E 028°39'0 0.0
2018-Jun-09 16:29N 44°09' E 028°39'0 0.0
2018-Jun-09 15:58N 44°09' E 028°39'0 0.0
2018-Jun-09 14:54N 44°09' E 028°39'0 0.0
2018-Jun-09 14:30N 44°09' E 028°39'0 0.0
2018-Jun-09 13:59N 44°09' E 028°39'0 0.0
2018-Jun-09 13:29N 44°09' E 028°39'0 0.0
2018-Jun-09 12:55N 44°09' E 028°39'0 0.0
2018-Jun-09 12:23N 44°09' E 028°39'0 0.0
2018-Jun-09 11:59N 44°09' E 028°39'0 0.0
2018-Jun-09 11:29N 44°09' E 028°39'0 0.0
2018-Jun-09 10:52N 44°09' E 028°39'0 0.0
2018-Jun-09 10:30N 44°09' E 028°39'0 0.0
2018-Jun-09 10:00N 44°09' E 028°39'0 0.0
2018-Jun-09 09:24N 44°09' E 028°39'0 0.0
2018-Jun-09 08:59N 44°09' E 028°39'0 0.0
2018-Jun-09 08:29N 44°09' E 028°39'0 0.0
2018-Jun-09 08:00N 44°09' E 028°39'0 0.0
2018-Jun-09 07:25N 44°09' E 028°39'0 0.0
2018-Jun-09 07:00N 44°09' E 028°39'0 0.0
2018-Jun-09 06:30N 44°09' E 028°39'0 0.0
2018-Jun-09 05:59N 44°09' E 028°39'0 0.0
2018-Jun-09 05:28N 44°09' E 028°39'0 0.0
2018-Jun-09 04:58N 44°09' E 028°39'0 0.0
2018-Jun-09 04:29N 44°09' E 028°39'0 0.0
2018-Jun-09 03:58N 44°09' E 028°39'0 0.0
2018-Jun-09 03:29N 44°09' E 028°39'0 0.0
2018-Jun-09 03:00N 44°09' E 028°39'0 0.0
2018-Jun-09 02:30N 44°09' E 028°39'0 0.0
2018-Jun-09 01:58N 44°09' E 028°39'0 0.0
2018-Jun-09 01:25N 44°09' E 028°39'0 0.0
2018-Jun-09 00:55N 44°09' E 028°39'0 0.0
2018-Jun-09 00:29N 44°09' E 028°39'0 0.0
2018-Jun-09 00:00N 44°09' E 028°39'0 0.0
2018-Jun-08 23:25N 44°09' E 028°39'0 0.0
2018-Jun-08 22:53N 44°09' E 028°39'0 0.0
2018-Jun-08 22:23N 44°09' E 028°39'0 0.0
2018-Jun-08 21:59N 44°09' E 028°39'0 0.0
2018-Jun-08 21:25N 44°09' E 028°39'0 0.0
2018-Jun-08 20:54N 44°09' E 028°39'0 0.0
2018-Jun-08 20:25N 44°09' E 028°39'0 0.0
2018-Jun-08 19:59N 44°09' E 028°39'0 0.0
2018-Jun-08 19:28N 44°09' E 028°39'0 0.0
2018-Jun-08 19:00N 44°09' E 028°39'0 0.0
2018-Jun-08 18:27N 44°09' E 028°39'0 0.0
2018-Jun-08 17:59N 44°09' E 028°39'0 0.0
2018-Jun-08 17:29N 44°09' E 028°39'0 0.0
2018-Jun-08 16:58N 44°09' E 028°39'0 0.0
2018-Jun-08 16:28N 44°09' E 028°39'0 0.0
2018-Jun-08 15:59N 44°09' E 028°39'0 0.0
2018-Jun-08 15:28N 44°09' E 028°39'0 0.0
2018-Jun-08 14:59N 44°09' E 028°39'0 0.0
2018-Jun-08 14:29N 44°09' E 028°39'0 0.0
2018-Jun-08 13:57N 44°09' E 028°39'0 0.0
2018-Jun-08 13:29N 44°09' E 028°39'0 0.0
2018-Jun-08 12:59N 44°09' E 028°39'0 0.0
2018-Jun-08 12:28N 44°09' E 028°39'0 0.0
2018-Jun-08 11:59N 44°09' E 028°39'0 0.0
2018-Jun-08 11:30N 44°09' E 028°39'0 0.0
2018-Jun-08 10:58N 44°09' E 028°39'0 0.0
2018-Jun-08 10:28N 44°09' E 028°39'0 0.0
2018-Jun-08 09:58N 44°09' E 028°39'0 0.0
2018-Jun-08 09:30N 44°09' E 028°39'0 0.0
2018-Jun-08 08:53N 44°09' E 028°39'0 0.0
2018-Jun-08 08:28N 44°09' E 028°39'0 0.0
2018-Jun-08 07:59N 44°09' E 028°39'0 0.0
2018-Jun-08 07:30N 44°09' E 028°39'0 0.0
2018-Jun-08 06:59N 44°09' E 028°39'0 0.0
2018-Jun-08 06:28N 44°09' E 028°39'0 0.0
2018-Jun-08 05:58N 44°09' E 028°39'0 0.0
2018-Jun-08 05:26N 44°09' E 028°39'0 0.0
2018-Jun-08 04:55N 44°09' E 028°39'0 0.0
2018-Jun-08 04:23N 44°09' E 028°39'0 0.0
2018-Jun-08 03:59N 44°09' E 028°39'0 0.0
2018-Jun-08 03:29N 44°09' E 028°39'  
Track history (hours):
 
Tides and Currents Weather Stations Pressure Air Temp Water Temp Dewpoint Dewpoint Depression Visibility Wind Speed Wind Dir Waves Ship Positions

Sangita

Last reported at 2018-Jun-18 02:58 UTC. Time now 2018-Jun-21 12:27 UTC.
Position N 37°29' E 025°55'.

Length 154 m; draft 8.7 m.

Type: Cargo ship. MMSI: 312983000.

Date/timePositionNaut miles runAvg speedWind from/ knotsBaromVisibWave heightAir tempDewpointWater temp
2018-Jun-18 02:58N 37°29' E 025°55'510.6
2018-Jun-18 02:28N 37°34' E 025°53'276 7.7
2018-Jun-16 14:39N 41°30' E 028°58'0 0.6
2018-Jun-16 14:28N 41°30' E 028°58'0 0.7
2018-Jun-16 13:53N 41°31' E 028°59'0 0.5
2018-Jun-16 13:31N 41°31' E 028°59'3 1.9
2018-Jun-16 11:58N 41°33' E 029°02'88 9.3
2018-Jun-16 02:28N 43°01' E 028°57'611.9
2018-Jun-16 02:00N 43°06' E 028°56'611.8
2018-Jun-16 01:30N 43°12' E 028°55'611.7
2018-Jun-16 01:00N 43°18' E 028°54'611.7
2018-Jun-16 00:31N 43°24' E 028°53'611.5
2018-Jun-16 00:00N 43°29' E 028°53'611.4
2018-Jun-15 23:30N 43°35' E 028°52'611.2
2018-Jun-15 23:01N 43°41' E 028°51'611.1
2018-Jun-15 22:31N 43°46' E 028°51'611.2
2018-Jun-15 22:00N 43°52' E 028°50'611.1
2018-Jun-15 21:31N 43°57' E 028°49'610.8
2018-Jun-15 20:59N 44°02' E 028°45'5 9.5
2018-Jun-15 20:30N 44°06' E 028°42'3 6.6
2018-Jun-15 20:00N 44°09' E 028°40'1 1.7
2018-Jun-15 19:28N 44°09' E 028°39'0 0.0
2018-Jun-15 18:59N 44°09' E 028°39'0 0.0
2018-Jun-15 18:23N 44°09' E 028°39'0 0.0
2018-Jun-15 17:58N 44°09' E 028°39'0 0.0
2018-Jun-15 17:29N 44°09' E 028°39'0 0.0
2018-Jun-15 16:55N 44°09' E 028°39'0 0.0
2018-Jun-15 16:30N 44°09' E 028°39'0 0.0
2018-Jun-15 15:53N 44°09' E 028°39'0 0.0
2018-Jun-15 15:26N 44°09' E 028°39'0 0.0
2018-Jun-15 15:00N 44°09' E 028°39'0 0.0
2018-Jun-15 14:30N 44°09' E 028°39'0 0.0
2018-Jun-15 13:57N 44°09' E 028°39'0 0.0
2018-Jun-15 13:29N 44°09' E 028°39'0 0.0
2018-Jun-15 12:59N 44°09' E 028°39'0 0.0
2018-Jun-15 12:30N 44°09' E 028°39'0 0.0
2018-Jun-15 12:00N 44°09' E 028°39'0 0.0
2018-Jun-15 11:28N 44°09' E 028°39'0 0.0
2018-Jun-15 10:54N 44°09' E 028°39'0 0.0
2018-Jun-15 10:23N 44°09' E 028°39'0 0.0
2018-Jun-15 09:58N 44°09' E 028°39'0 0.0
2018-Jun-15 09:27N 44°09' E 028°39'0 0.0
2018-Jun-15 08:55N 44°09' E 028°39'0 0.0
2018-Jun-15 08:30N 44°09' E 028°39'0 0.0
2018-Jun-15 07:59N 44°09' E 028°39'0 0.0
2018-Jun-15 07:30N 44°09' E 028°39'0 0.0
2018-Jun-15 07:00N 44°09' E 028°39'0 0.0
2018-Jun-15 06:22N 44°09' E 028°39'0 0.0
2018-Jun-15 06:00N 44°09' E 028°39'0 0.0
2018-Jun-15 05:30N 44°09' E 028°39'0 0.0
2018-Jun-15 04:59N 44°09' E 028°39'0 0.0
2018-Jun-15 04:28N 44°09' E 028°39'0 0.0
2018-Jun-15 03:59N 44°09' E 028°39'0 0.0
2018-Jun-15 03:30N 44°09' E 028°39'0 0.0
2018-Jun-15 03:00N 44°09' E 028°39'0 0.0
2018-Jun-15 02:30N 44°09' E 028°39'0 0.0
2018-Jun-15 02:00N 44°09' E 028°39'0 0.0
2018-Jun-15 01:30N 44°09' E 028°39'0 0.0
2018-Jun-15 00:58N 44°09' E 028°39'0 0.0
2018-Jun-15 00:28N 44°09' E 028°39'0 0.0
2018-Jun-14 23:58N 44°09' E 028°39'0 0.0
2018-Jun-14 23:28N 44°09' E 028°39'0 0.0
2018-Jun-14 22:58N 44°09' E 028°39'0 0.0
2018-Jun-14 22:29N 44°09' E 028°39'0 0.0
2018-Jun-14 21:59N 44°09' E 028°39'0 0.0
2018-Jun-14 21:29N 44°09' E 028°39'0 0.0
2018-Jun-14 21:00N 44°09' E 028°39'0 0.0
2018-Jun-14 20:30N 44°09' E 028°39'0 0.0
2018-Jun-14 19:59N 44°09' E 028°39'0 0.0
2018-Jun-14 19:24N 44°09' E 028°39'0 0.0
2018-Jun-14 19:00N 44°09' E 028°39'0 0.0
2018-Jun-14 18:30N 44°09' E 028°39'0 0.0
2018-Jun-14 17:58N 44°09' E 028°39'0 0.0
2018-Jun-14 17:25N 44°09' E 028°39'0 0.0
2018-Jun-14 16:50N 44°09' E 028°39'0 0.0
2018-Jun-14 16:29N 44°09' E 028°39'0 0.0
2018-Jun-14 15:50N 44°09' E 028°39'0 0.0
2018-Jun-14 15:20N 44°09' E 028°39'0 0.0
2018-Jun-14 14:45N 44°09' E 028°39'0 0.0
2018-Jun-14 14:19N 44°09' E 028°39'0 0.0
2018-Jun-14 13:02N 44°09' E 028°39'0 0.1
2018-Jun-14 12:58N 44°09' E 028°39'0 0.0
2018-Jun-14 12:30N 44°09' E 028°39'0 0.0
2018-Jun-14 11:58N 44°09' E 028°39'0 0.0
2018-Jun-14 11:26N 44°09' E 028°39'0 0.0
2018-Jun-14 10:59N 44°09' E 028°39'0 0.0
2018-Jun-14 10:29N 44°09' E 028°39'0 0.0
2018-Jun-14 09:56N 44°09' E 028°39'0 0.0
2018-Jun-14 09:26N 44°09' E 028°39'0 0.0
2018-Jun-14 09:00N 44°09' E 028°39'0 0.0
2018-Jun-14 08:15N 44°09' E 028°39'0 0.0
2018-Jun-14 07:59N 44°09' E 028°39'0 0.0
2018-Jun-14 07:26N 44°09' E 028°39'0 0.0
2018-Jun-14 06:59N 44°09' E 028°39'0 0.0
2018-Jun-14 06:30N 44°09' E 028°39'0 0.0
2018-Jun-14 06:00N 44°09' E 028°39'0 0.0
2018-Jun-14 05:26N 44°09' E 028°39'0 0.0
2018-Jun-14 04:57N 44°09' E 028°39'0 0.0
2018-Jun-14 04:30N 44°09' E 028°39'0 0.0
2018-Jun-14 03:58N 44°09' E 028°39'0 0.0
2018-Jun-14 03:27N 44°09' E 028°39'0 0.0
2018-Jun-14 02:54N 44°09' E 028°39'0 0.0
2018-Jun-14 02:29N 44°09' E 028°39'0 0.0
2018-Jun-14 01:59N 44°09' E 028°39'0 0.0
2018-Jun-14 01:30N 44°09' E 028°39'0 0.0
2018-Jun-14 00:52N 44°09' E 028°39'0 0.0
2018-Jun-14 00:29N 44°09' E 028°39'0 0.0
2018-Jun-13 23:59N 44°09' E 028°39'0 0.0
2018-Jun-13 23:28N 44°09' E 028°39'0 0.0
2018-Jun-13 22:54N 44°09' E 028°39'0 0.0
2018-Jun-13 22:29N 44°09' E 028°39'0 0.0
2018-Jun-13 21:59N 44°09' E 028°39'0 0.0
2018-Jun-13 21:23N 44°09' E 028°39'0 0.0
2018-Jun-13 20:59N 44°09' E 028°39'0 0.0
2018-Jun-13 20:23N 44°09' E 028°39'0 0.0
2018-Jun-13 19:59N 44°09' E 028°39'0 0.0
2018-Jun-13 19:27N 44°09' E 028°39'0 0.0
2018-Jun-13 18:57N 44°09' E 028°39'0 0.0
2018-Jun-13 18:29N 44°09' E 028°39'0 0.0
2018-Jun-13 17:56N 44°09' E 028°39'0 0.0
2018-Jun-13 17:26N 44°09' E 028°39'0 0.0
2018-Jun-13 17:00N 44°09' E 028°39'0 0.0
2018-Jun-13 16:20N 44°09' E 028°39'0 0.0
2018-Jun-13 15:59N 44°09' E 028°39'0 0.0
2018-Jun-13 15:30N 44°09' E 028°39'0 0.0
2018-Jun-13 14:54N 44°09' E 028°39'0 0.0
2018-Jun-13 14:30N 44°09' E 028°39'0 0.0
2018-Jun-13 13:56N 44°09' E 028°39'0 0.0
2018-Jun-13 13:25N 44°09' E 028°39'0 0.0
2018-Jun-13 12:59N 44°09' E 028°39'0 0.0
2018-Jun-13 12:30N 44°09' E 028°39'0 0.0
2018-Jun-13 11:58N 44°09' E 028°39'0 0.0
2018-Jun-13 11:24N 44°09' E 028°39'0 0.0
2018-Jun-13 11:00N 44°09' E 028°39'0 0.0
2018-Jun-13 10:29N 44°09' E 028°39'0 0.0
2018-Jun-13 09:58N 44°09' E 028°39'0 0.0
2018-Jun-13 09:27N 44°09' E 028°39'0 0.0
2018-Jun-13 08:55N 44°09' E 028°39'0 0.0
2018-Jun-13 08:29N 44°09' E 028°39'0 0.0
2018-Jun-13 07:58N 44°09' E 028°39'0 0.0
2018-Jun-13 07:28N 44°09' E 028°39'0 0.0
2018-Jun-13 07:00N 44°09' E 028°39'0 0.0
2018-Jun-13 06:29N 44°09' E 028°39'0 0.0
2018-Jun-13 05:44N 44°09' E 028°39'0 0.0
2018-Jun-13 05:26N 44°09' E 028°39'0 0.0
2018-Jun-13 04:55N 44°09' E 028°39'0 0.0
2018-Jun-13 04:27N 44°09' E 028°39'0 0.0
2018-Jun-13 03:58N 44°09' E 028°39'0 0.0
2018-Jun-13 03:25N 44°09' E 028°39'0 0.0
2018-Jun-13 02:59N 44°09' E 028°39'0 0.0
2018-Jun-13 02:30N 44°09' E 028°39'0 0.0
2018-Jun-13 01:53N 44°09' E 028°39'0 0.0
2018-Jun-13 01:28N 44°09' E 028°39'0 0.0
2018-Jun-13 00:58N 44°09' E 028°39'0 0.0
2018-Jun-13 00:29N 44°09' E 028°39'0 0.0
2018-Jun-12 23:59N 44°09' E 028°39'0 0.0
2018-Jun-12 23:30N 44°09' E 028°39'0 0.0
2018-Jun-12 22:54N 44°09' E 028°39'0 0.0
2018-Jun-12 22:28N 44°09' E 028°39'0 0.0
2018-Jun-12 22:00N 44°09' E 028°39'0 0.0
2018-Jun-12 21:26N 44°09' E 028°39'0 0.0
2018-Jun-12 20:59N 44°09' E 028°39'0 0.0
2018-Jun-12 20:29N 44°09' E 028°39'0 0.0
2018-Jun-12 19:55N 44°09' E 028°39'0 0.0
2018-Jun-12 19:25N 44°09' E 028°39'0 0.0
2018-Jun-12 18:59N 44°09' E 028°39'0 0.0
2018-Jun-12 18:28N 44°09' E 028°39'0 0.0
2018-Jun-12 17:04N 44°09' E 028°39'0 0.0
2018-Jun-12 16:57N 44°09' E 028°39'0 0.0
2018-Jun-12 16:23N 44°09' E 028°39'0 0.0
2018-Jun-12 15:57N 44°09' E 028°39'0 0.0
2018-Jun-12 15:30N 44°09' E 028°39'0 0.0
2018-Jun-12 14:57N 44°09' E 028°39'0 0.0
2018-Jun-12 14:27N 44°09' E 028°39'0 0.0
2018-Jun-12 13:53N 44°09' E 028°39'0 0.0
2018-Jun-12 13:30N 44°09' E 028°39'0 0.0
2018-Jun-12 12:46N 44°09' E 028°39'0 0.0
2018-Jun-12 12:24N 44°09' E 028°39'0 0.0
2018-Jun-12 11:58N 44°09' E 028°39'0 0.0
2018-Jun-12 11:27N 44°09' E 028°39'0 0.0
2018-Jun-12 10:59N 44°09' E 028°39'0 0.0
2018-Jun-12 10:29N 44°09' E 028°39'0 0.0
2018-Jun-12 09:56N 44°09' E 028°39'0 0.0
2018-Jun-12 09:29N 44°09' E 028°39'0 0.0
2018-Jun-12 09:00N 44°09' E 028°39'0 0.0
2018-Jun-12 08:23N 44°09' E 028°39'0 0.0
2018-Jun-12 07:58N 44°09' E 028°39'0 0.0
2018-Jun-12 07:30N 44°09' E 028°39'0 0.0
2018-Jun-12 06:58N 44°09' E 028°39'0 0.0
2018-Jun-12 06:30N 44°09' E 028°39'0 0.0
2018-Jun-12 05:56N 44°09' E 028°39'0 0.0
2018-Jun-12 05:30N 44°09' E 028°39'0 0.0
2018-Jun-12 04:58N 44°09' E 028°39'0 0.0
2018-Jun-12 04:28N 44°09' E 028°39'0 0.0
2018-Jun-12 03:58N 44°09' E 028°39'0 0.0
2018-Jun-12 03:29N 44°09' E 028°39'0 0.0
2018-Jun-12 03:00N 44°09' E 028°39'0 0.0
2018-Jun-12 02:21N 44°09' E 028°39'0 0.0
2018-Jun-12 01:58N 44°09' E 028°39'0 0.0
2018-Jun-12 01:25N 44°09' E 028°39'0 0.0
2018-Jun-12 01:00N 44°09' E 028°39'0 0.0
2018-Jun-12 00:28N 44°09' E 028°39'0 0.0
2018-Jun-11 23:51N 44°09' E 028°39'0 0.0
2018-Jun-11 23:27N 44°09' E 028°39'0 0.0
2018-Jun-11 23:00N 44°09' E 028°39'0 0.0
2018-Jun-11 22:30N 44°09' E 028°39'0 0.0
2018-Jun-11 22:00N 44°09' E 028°39'0 0.0
2018-Jun-11 21:25N 44°09' E 028°39'0 0.0
2018-Jun-11 20:58N 44°09' E 028°39'0 0.0
2018-Jun-11 20:28N 44°09' E 028°39'0 0.0
2018-Jun-11 20:00N 44°09' E 028°39'0 0.0
2018-Jun-11 19:30N 44°09' E 028°39'0 0.0
2018-Jun-11 18:58N 44°09' E 028°39'0 0.0
2018-Jun-11 18:26N 44°09' E 028°39'0 0.0
2018-Jun-11 17:59N 44°09' E 028°39'0 0.0
2018-Jun-11 17:27N 44°09' E 028°39'0 0.0
2018-Jun-11 16:54N 44°09' E 028°39'0 0.0
2018-Jun-11 16:30N 44°09' E 028°39'0 0.0
2018-Jun-11 16:00N 44°09' E 028°39'0 0.0
2018-Jun-11 15:24N 44°09' E 028°39'0 0.0
2018-Jun-11 14:59N 44°09' E 028°39'0 0.0
2018-Jun-11 14:26N 44°09' E 028°39'0 0.0
2018-Jun-11 13:59N 44°09' E 028°39'0 0.0
2018-Jun-11 13:27N 44°09' E 028°39'0 0.0
2018-Jun-11 12:59N 44°09' E 028°39'0 0.0
2018-Jun-11 12:30N 44°09' E 028°39'0 0.0
2018-Jun-11 11:58N 44°09' E 028°39'0 0.0
2018-Jun-11 11:29N 44°09' E 028°39'0 0.0
2018-Jun-11 10:55N 44°09' E 028°39'0 0.0
2018-Jun-11 10:30N 44°09' E 028°39'0 0.0
2018-Jun-11 10:00N 44°09' E 028°39'0 0.0
2018-Jun-11 09:30N 44°09' E 028°39'0 0.0
2018-Jun-11 08:56N 44°09' E 028°39'0 0.0
2018-Jun-11 08:30N 44°09' E 028°39'0 0.0
2018-Jun-11 08:00N 44°09' E 028°39'0 0.0
2018-Jun-11 07:28N 44°09' E 028°39'0 0.0
2018-Jun-11 06:52N 44°09' E 028°39'0 0.0
2018-Jun-11 06:28N 44°09' E 028°39'0 0.0
2018-Jun-11 05:59N 44°09' E 028°39'0 0.0
2018-Jun-11 05:27N 44°09' E 028°39'0 0.0
2018-Jun-11 05:00N 44°09' E 028°39'0 0.0
2018-Jun-11 04:28N 44°09' E 028°39'0 0.0
2018-Jun-11 03:58N 44°09' E 028°39'0 0.0
2018-Jun-11 03:28N 44°09' E 028°39'0 0.0
2018-Jun-11 03:00N 44°09' E 028°39'0 0.0
2018-Jun-11 02:28N 44°09' E 028°39'0 0.0
2018-Jun-11 02:00N 44°09' E 028°39'0 0.0
2018-Jun-11 01:25N 44°09' E 028°39'0 0.0
2018-Jun-11 00:53N 44°09' E 028°39'0 0.0
2018-Jun-11 00:30N 44°09' E 028°39'0 0.0
2018-Jun-10 23:59N 44°09' E 028°39'0 0.0
2018-Jun-10 23:29N 44°09' E 028°39'0 0.0
2018-Jun-10 22:59N 44°09' E 028°39'0 0.0
2018-Jun-10 22:29N 44°09' E 028°39'0 0.0
2018-Jun-10 21:59N 44°09' E 028°39'0 0.0
2018-Jun-10 21:30N 44°09' E 028°39'0 0.0
2018-Jun-10 20:55N 44°09' E 028°39'0 0.0
2018-Jun-10 20:30N 44°09' E 028°39'0 0.0
2018-Jun-10 19:59N 44°09' E 028°39'0 0.0
2018-Jun-10 19:28N 44°09' E 028°39'0 0.0
2018-Jun-10 18:57N 44°09' E 028°39'0 0.0
2018-Jun-10 18:23N 44°09' E 028°39'0 0.0
2018-Jun-10 17:54N 44°09' E 028°39'0 0.0
2018-Jun-10 17:24N 44°09' E 028°39'0 0.0
2018-Jun-10 17:00N 44°09' E 028°39'0 0.0
2018-Jun-10 16:29N 44°09' E 028°39'0 0.0
2018-Jun-10 15:58N 44°09' E 028°39'0 0.0
2018-Jun-10 15:30N 44°09' E 028°39'0 0.0
2018-Jun-10 14:58N 44°09' E 028°39'0 0.0
2018-Jun-10 13:58N 44°09' E 028°39'0 0.0
2018-Jun-10 13:30N 44°09' E 028°39'0 0.0
2018-Jun-10 13:00N 44°09' E 028°39'0 0.0
2018-Jun-10 12:30N 44°09' E 028°39'0 0.0
2018-Jun-10 11:57N 44°09' E 028°39'0 0.0
2018-Jun-10 11:25N 44°09' E 028°39'0 0.0
2018-Jun-10 10:56N 44°09' E 028°39'0 0.0
2018-Jun-10 10:29N 44°09' E 028°39'0 0.0
2018-Jun-10 10:00N 44°09' E 028°39'0 0.0
2018-Jun-10 09:30N 44°09' E 028°39'0 0.0
2018-Jun-10 08:59N 44°09' E 028°39'0 0.0
2018-Jun-10 08:23N 44°09' E 028°39'0 0.0
2018-Jun-10 07:58N 44°09' E 028°39'0 0.0
2018-Jun-10 07:28N 44°09' E 028°39'0 0.0
2018-Jun-10 06:58N 44°09' E 028°39'0 0.0
2018-Jun-10 06:29N 44°09' E 028°39'0 0.0
2018-Jun-10 05:58N 44°09' E 028°39'0 0.0
2018-Jun-10 05:28N 44°09' E 028°39'0 0.0
2018-Jun-10 04:53N 44°09' E 028°39'0 0.0
2018-Jun-10 04:28N 44°09' E 028°39'0 0.0
2018-Jun-10 03:56N 44°09' E 028°39'0 0.0
2018-Jun-10 03:27N 44°09' E 028°39'0 0.0
2018-Jun-10 02:55N 44°09' E 028°39'0 0.0
2018-Jun-10 02:29N 44°09' E 028°39'0 0.0
2018-Jun-10 01:58N 44°09' E 028°39'0 0.0
2018-Jun-10 01:24N 44°09' E 028°39'0 0.0
2018-Jun-10 00:59N 44°09' E 028°39'0 0.0
2018-Jun-10 00:29N 44°09' E 028°39'0 0.0
2018-Jun-09 23:57N 44°09' E 028°39'0 0.0
2018-Jun-09 23:30N 44°09' E 028°39'0 0.0
2018-Jun-09 23:00N 44°09' E 028°39'0 0.0
2018-Jun-09 22:29N 44°09' E 028°39'0 0.0
2018-Jun-09 22:00N 44°09' E 028°39'0 0.0
2018-Jun-09 21:27N 44°09' E 028°39'0 0.0
2018-Jun-09 21:00N 44°09' E 028°39'0 0.0
2018-Jun-09 20:30N 44°09' E 028°39'0 0.0
2018-Jun-09 19:57N 44°09' E 028°39'0 0.0
2018-Jun-09 19:28N 44°09' E 028°39'0 0.0
2018-Jun-09 19:00N 44°09' E 028°39'0 0.0
2018-Jun-09 18:30N 44°09' E 028°39'0 0.0
2018-Jun-09 17:58N 44°09' E 028°39'0 0.0
2018-Jun-09 17:29N 44°09' E 028°39'0 0.0
2018-Jun-09 17:00N 44°09' E 028°39'0 0.0
2018-Jun-09 16:29N 44°09' E 028°39'0 0.0
2018-Jun-09 15:58N 44°09' E 028°39'0 0.0
2018-Jun-09 14:54N 44°09' E 028°39'0 0.0
2018-Jun-09 14:30N 44°09' E 028°39'0 0.0
2018-Jun-09 13:59N 44°09' E 028°39'0 0.0
2018-Jun-09 13:29N 44°09' E 028°39'0 0.0
2018-Jun-09 12:55N 44°09' E 028°39'0 0.0
2018-Jun-09 12:23N 44°09' E 028°39'0 0.0
2018-Jun-09 11:59N 44°09' E 028°39'0 0.0
2018-Jun-09 11:29N 44°09' E 028°39'0 0.0
2018-Jun-09 10:52N 44°09' E 028°39'0 0.0
2018-Jun-09 10:30N 44°09' E 028°39'0 0.0
2018-Jun-09 10:00N 44°09' E 028°39'0 0.0
2018-Jun-09 09:24N 44°09' E 028°39'0 0.0
2018-Jun-09 08:59N 44°09' E 028°39'0 0.0
2018-Jun-09 08:29N 44°09' E 028°39'0 0.0
2018-Jun-09 08:00N 44°09' E 028°39'0 0.0
2018-Jun-09 07:25N 44°09' E 028°39'0 0.0
2018-Jun-09 07:00N 44°09' E 028°39'0 0.0
2018-Jun-09 06:30N 44°09' E 028°39'0 0.0
2018-Jun-09 05:59N 44°09' E 028°39'0 0.0
2018-Jun-09 05:28N 44°09' E 028°39'0 0.0
2018-Jun-09 04:58N 44°09' E 028°39'0 0.0
2018-Jun-09 04:29N 44°09' E 028°39'0 0.0
2018-Jun-09 03:58N 44°09' E 028°39'0 0.0
2018-Jun-09 03:29N 44°09' E 028°39'0 0.0
2018-Jun-09 03:00N 44°09' E 028°39'0 0.0
2018-Jun-09 02:30N 44°09' E 028°39'0 0.0
2018-Jun-09 01:58N 44°09' E 028°39'0 0.0
2018-Jun-09 01:25N 44°09' E 028°39'0 0.0
2018-Jun-09 00:55N 44°09' E 028°39'0 0.0
2018-Jun-09 00:29N 44°09' E 028°39'0 0.0
2018-Jun-09 00:00N 44°09' E 028°39'0 0.0
2018-Jun-08 23:25N 44°09' E 028°39'0 0.0
2018-Jun-08 22:53N 44°09' E 028°39'0 0.0
2018-Jun-08 22:23N 44°09' E 028°39'0 0.0
2018-Jun-08 21:59N 44°09' E 028°39'0 0.0
2018-Jun-08 21:25N 44°09' E 028°39'0 0.0
2018-Jun-08 20:54N 44°09' E 028°39'0 0.0
2018-Jun-08 20:25N 44°09' E 028°39'0 0.0
2018-Jun-08 19:59N 44°09' E 028°39'0 0.0
2018-Jun-08 19:28N 44°09' E 028°39'0 0.0
2018-Jun-08 19:00N 44°09' E 028°39'0 0.0
2018-Jun-08 18:27N 44°09' E 028°39'0 0.0
2018-Jun-08 17:59N 44°09' E 028°39'0 0.0
2018-Jun-08 17:29N 44°09' E 028°39'0 0.0
2018-Jun-08 16:58N 44°09' E 028°39'0 0.0
2018-Jun-08 16:28N 44°09' E 028°39'0 0.0
2018-Jun-08 15:59N 44°09' E 028°39'0 0.0
2018-Jun-08 15:28N 44°09' E 028°39'0 0.0
2018-Jun-08 14:59N 44°09' E 028°39'0 0.0
2018-Jun-08 14:29N 44°09' E 028°39'0 0.0
2018-Jun-08 13:57N 44°09' E 028°39'0 0.0
2018-Jun-08 13:29N 44°09' E 028°39'0 0.0
2018-Jun-08 12:59N 44°09' E 028°39'0 0.0
2018-Jun-08 12:28N 44°09' E 028°39'0 0.0
2018-Jun-08 11:59N 44°09' E 028°39'0 0.0
2018-Jun-08 11:30N 44°09' E 028°39'0 0.0
2018-Jun-08 10:58N 44°09' E 028°39'0 0.0
2018-Jun-08 10:28N 44°09' E 028°39'0 0.0
2018-Jun-08 09:58N 44°09' E 028°39'0 0.0
2018-Jun-08 09:30N 44°09' E 028°39'0 0.0
2018-Jun-08 08:53N 44°09' E 028°39'0 0.0
2018-Jun-08 08:28N 44°09' E 028°39'0 0.0
2018-Jun-08 07:59N 44°09' E 028°39'0 0.0
2018-Jun-08 07:30N 44°09' E 028°39'0 0.0
2018-Jun-08 06:59N 44°09' E 028°39'0 0.0
2018-Jun-08 06:28N 44°09' E 028°39'0 0.0
2018-Jun-08 05:58N 44°09' E 028°39'0 0.0
2018-Jun-08 05:26N 44°09' E 028°39'0 0.0
2018-Jun-08 04:55N 44°09' E 028°39'0 0.0
2018-Jun-08 04:23N 44°09' E 028°39'0 0.0
2018-Jun-08 03:59N 44°09' E 028°39'0 0.0
2018-Jun-08 03:29N 44°09' E 028°39'  

Dump ship's entire track history